WetterOnline ( https://www.wetteronline.de )

Wetter aktuell Bad Belzig

Aktuelles Wetter: Wiesenburg (188m)

6-stündlich | Neueste Meldungen
Ortszeit Temperatur Wetter
Di, 29.11. 1:00 2.4° C bedeckt
Mo, 28.11. 19:00 3.5° C bewölkt
Mo, 28.11. 13:00 4.2° C bedeckt
Mo, 28.11. 7:00 2.0° C bewölkt
Mo, 28.11. 1:00 2.3° C bedeckt
So, 27.11. 19:00 3.8° C bedeckt
So, 27.11. 13:00 6.4° C wolkig
So, 27.11. 7:00 1.4° C fast wolkenlos
Ortszeit Temperatur Wetter
Di, 29.11. 5:00 2.5° C Sprühregen
Di, 29.11. 4:50 2.5° C Sprühregen
Di, 29.11. 4:40 2.5° C Sprühregen
Di, 29.11. 4:30 2.5° C Sprühregen
Di, 29.11. 4:20 2.5° C Sprühregen
Di, 29.11. 4:10 2.5° C Sprühregen
Di, 29.11. 4:00 2.5° C Sprühregen
Di, 29.11. 3:30 2.4° C bewölkt
Di, 29.11. 3:00 2.4° C bedeckt
Di, 29.11. 2:30 2.4° C bewölkt
Di, 29.11. 2:00 2.4° C bedeckt
Ortszeit Relative Feuchte Sichtweite
Di, 29.11. 1:00 92% 10 km
Mo, 28.11. 19:00 86% 18 km
Mo, 28.11. 13:00 81% 27 km
Mo, 28.11. 7:00 88% 23 km
Mo, 28.11. 1:00 88% 25 km
So, 27.11. 19:00 85% 40 km
So, 27.11. 13:00 76% 35 km
So, 27.11. 7:00 96% 6 km
Ortszeit Relative Feuchte Sichtweite
Di, 29.11. 5:00 95% 5.0 km
Di, 29.11. 4:50 95% -
Di, 29.11. 4:40 94% -
Di, 29.11. 4:30 94% 6 km
Di, 29.11. 4:20 94% -
Di, 29.11. 4:10 94% -
Di, 29.11. 4:00 94% 7 km
Di, 29.11. 3:30 94% 8 km
Di, 29.11. 3:00 94% 7 km
Di, 29.11. 2:30 94% 8 km
Di, 29.11. 2:00 93% 8 km
Ortszeit Niederschlagsmenge Niederschlagsart
Di, 29.11. 1:00 0.0 l/m2 in 6 Std. -
Mo, 28.11. 19:00 0.0 l/m2 in 12 Std. -
Mo, 28.11. 13:00 0.0 l/m2 in 6 Std. -
Mo, 28.11. 7:00 0.0 l/m2 in 12 Std. -
Mo, 28.11. 1:00 0.0 l/m2 in 6 Std. -
So, 27.11. 19:00 0.0 l/m2 in 12 Std. -
So, 27.11. 13:00 0.0 l/m2 in 6 Std. -
So, 27.11. 7:00 0.0 l/m2 in 12 Std. -
Ortszeit Niederschlagsmenge Niederschlagsart
Di, 29.11. 5:00 <0.05 l/m2 in 1 Std. Regen
Di, 29.11. 4:50 keine Meldung -
Di, 29.11. 4:40 keine Meldung -
Di, 29.11. 4:30 <0.05 l/m2 in 1 Std. -
Di, 29.11. 4:20 keine Meldung -
Di, 29.11. 4:10 keine Meldung -
Di, 29.11. 4:00 <0.05 l/m2 in 1 Std. Regen
Di, 29.11. 3:30 <0.05 l/m2 in 1 Std. Schneeregen
Di, 29.11. 3:00 0.0 l/m2 in 1 Std. -
Di, 29.11. 2:30 0.0 l/m2 in 1 Std. -
Di, 29.11. 2:00 0.0 l/m2 in 1 Std. -
Ortszeit Stärke Spitze Richtung
km/h Bft. km/h Grad Sektor
Di, 29.11. 1:00 9 2 22 110° O
Mo, 28.11. 19:00 11 2 29 120° SO
Mo, 28.11. 13:00 14 3 32 120° SO
Mo, 28.11. 7:00 9 2 28 120° SO
Mo, 28.11. 1:00 7 2 22 140° SO
So, 27.11. 19:00 11 2 22 140° SO
So, 27.11. 13:00 7 2 22 170° S
So, 27.11. 7:00 11 2 20 190° S
Ortszeit Stärke Spitze Richtung
km/h Bft. km/h Grad Sektor
Di, 29.11. 5:00 11 2 18 120° SO
Di, 29.11. 4:50 11 2 - 120° SO
Di, 29.11. 4:40 11 2 - 110° O
Di, 29.11. 4:30 11 2 18 120° SO
Di, 29.11. 4:20 11 2 - 120° SO
Di, 29.11. 4:10 9 2 - 120° SO
Di, 29.11. 4:00 11 2 18 110° O
Di, 29.11. 3:30 11 2 18 110° O
Di, 29.11. 3:00 11 2 18 120° SO
Di, 29.11. 2:30 11 2 18 120° SO
Di, 29.11. 2:00 9 2 15 110° O
Ortszeit Untergrenze Bedeckung Gattung
total tief tief mittel hoch
Di, 29.11. 1:00 1440 m 8/8 8/8 - - -
Mo, 28.11. 19:00 1800 m 7/8 7/8 - - -
Mo, 28.11. 13:00 2100 m 8/8 8/8 - - -
Mo, 28.11. 7:00 1800 m 8/8 7/8 - - -
Mo, 28.11. 1:00 3000 m 8/8 8/8 - - -
So, 27.11. 19:00 3600 m 8/8 8/8 - - -
So, 27.11. 13:00 6300 m 8/8 7/8 - - -
So, 27.11. 7:00 10500 m 1/8 0/8 - - -
Ortszeit Bedeckungsgrad in Achtel und Wolkenuntergrenze
Di, 29.11. 5:00 8(690m)
Di, 29.11. 4:50 8(690m)
Di, 29.11. 4:40 8
Di, 29.11. 4:30 8(720m)
Di, 29.11. 4:20 8(720m)
Di, 29.11. 4:10 8
Di, 29.11. 4:00 8(720m)
Di, 29.11. 3:30 3(780m) 7(960m) 7(1500m)
Di, 29.11. 3:00 2(1410m) 7(2100m) 8(2400m)
Di, 29.11. 2:30 7(2100m) 7(2700m)
Di, 29.11. 2:00 1(1500m) 8(2100m)
Ortszeit Luftdruck NN (hPa) Tendenz (hPa in 3 Std.)
Di, 29.11. 1:00 1016 + 0,1
Mo, 28.11. 19:00 1015 + 0,2
Mo, 28.11. 13:00 1015 - 0,5
Mo, 28.11. 7:00 1017 - 1,3
Mo, 28.11. 1:00 1020 - 1,3
So, 27.11. 19:00 1023 - 1,8
So, 27.11. 13:00 1026 - 1,0
So, 27.11. 7:00 1029 - 0,8
Ortszeit Luftdruck NN (hPa) Tendenz (hPa in 3 Std.)
Di, 29.11. 5:00 1016 + 0,4
Di, 29.11. 4:50 1016 keine Meldung
Di, 29.11. 4:40 1016 keine Meldung
Di, 29.11. 4:30 1016 + 0,1
Di, 29.11. 4:20 1016 keine Meldung
Di, 29.11. 4:10 1016 keine Meldung
Di, 29.11. 4:00 1016 + 0,1
Di, 29.11. 3:30 1016 + 0,1
Di, 29.11. 3:00 1016 + 0,3
Di, 29.11. 2:30 1016 + 0,2
Di, 29.11. 2:00 1016 + 0,2
Ortszeit Schneehöhe (cm)
Di, 29.11. 1:00 0
Mo, 28.11. 19:00 0
Mo, 28.11. 13:00 0
Mo, 28.11. 7:00 0
Mo, 28.11. 1:00 0
So, 27.11. 19:00 0
So, 27.11. 13:00 0
So, 27.11. 7:00 0
Ortszeit Schneehöhe (cm)
Di, 29.11. 5:00 0
Di, 29.11. 4:50 0
Di, 29.11. 4:40 0
Di, 29.11. 4:30 0
Di, 29.11. 4:20 0
Di, 29.11. 4:10 0
Di, 29.11. 4:00 0
Di, 29.11. 3:30 0
Di, 29.11. 3:00 0
Di, 29.11. 2:30 0
Di, 29.11. 2:00 0
Link zu dieser Seite / Seite empfehlen

Das Wetter in ...